createdAt,value
2023-02-09T00:01:42.956Z,0.41
2023-02-09T00:04:29.887Z,0.36
2023-02-09T00:07:21.741Z,0.32
2023-02-09T00:10:09.080Z,0.39
2023-02-09T00:13:14.692Z,0.41
2023-02-09T00:16:02.697Z,0.29
2023-02-09T00:18:49.112Z,0.31
2023-02-09T00:21:36.006Z,0.32
2023-02-09T00:24:23.027Z,0.32
2023-02-09T00:27:10.136Z,0.27
2023-02-09T00:29:58.353Z,0.24
2023-02-09T00:32:45.200Z,0.18
2023-02-09T00:35:31.967Z,0.13
2023-02-09T00:38:18.766Z,0.00
2023-02-09T00:41:07.157Z,0.11
2023-02-09T00:43:53.844Z,0.16
2023-02-09T00:46:42.350Z,0.33
2023-02-09T00:49:29.526Z,0.30
2023-02-09T00:52:16.358Z,0.27
2023-02-09T00:55:03.367Z,0.11
2023-02-09T00:57:49.910Z,0.23
2023-02-09T01:00:36.707Z,0.25
2023-02-09T01:03:24.875Z,0.08
2023-02-09T01:06:12.636Z,0.16
2023-02-09T01:08:59.878Z,-0.05
2023-02-09T01:11:46.591Z,0.09
2023-02-09T01:14:33.358Z,0.10
2023-02-09T01:17:20.371Z,0.10
2023-02-09T01:20:10.318Z,0.05
2023-02-09T01:22:57.620Z,-0.06
2023-02-09T01:25:44.540Z,-0.08
2023-02-09T01:28:31.049Z,-0.10
2023-02-09T01:31:21.608Z,-0.17
2023-02-09T01:34:13.269Z,-0.19
2023-02-09T01:37:01.030Z,-0.19
2023-02-09T01:39:47.926Z,-0.27
2023-02-09T01:42:34.732Z,-0.28
2023-02-09T01:45:29.852Z,-0.30
2023-02-09T01:48:19.224Z,-0.15
2023-02-09T01:51:06.276Z,-0.23
2023-02-09T01:53:54.339Z,-0.29
2023-02-09T01:56:46.517Z,-0.32
2023-02-09T01:59:35.823Z,-0.43
2023-02-09T02:02:23.593Z,-0.45
2023-02-09T02:05:11.356Z,-0.46
2023-02-09T02:08:03.072Z,-0.27
2023-02-09T02:10:52.213Z,-0.39
2023-02-09T02:13:38.773Z,-0.30
2023-02-09T02:16:46.343Z,-0.43
2023-02-09T02:20:17.767Z,-0.54
2023-02-09T02:23:18.199Z,-0.60
2023-02-09T02:26:46.805Z,-0.68
2023-02-09T02:30:10.866Z,-0.66
2023-02-09T02:33:12.811Z,-0.55
2023-02-09T02:36:06.854Z,-0.51
2023-02-09T02:38:58.329Z,-0.54
2023-02-09T02:42:10.539Z,-0.69
2023-02-09T02:45:04.273Z,-0.69
2023-02-09T02:47:58.562Z,-0.92
2023-02-09T02:50:53.758Z,-0.77
2023-02-09T02:53:44.915Z,-0.59
2023-02-09T02:56:35.592Z,-0.69
2023-02-09T02:59:28.775Z,-0.78
2023-02-09T03:02:20.158Z,-0.65
2023-02-09T03:05:08.374Z,-0.53
2023-02-09T03:07:56.638Z,-0.58
2023-02-09T03:10:43.879Z,-0.78
2023-02-09T03:13:41.970Z,-0.72
2023-02-09T03:16:34.999Z,-0.59
2023-02-09T03:19:31.481Z,-0.74
2023-02-09T03:22:27.307Z,-0.94
2023-02-09T03:25:19.508Z,-0.78
2023-02-09T03:28:09.725Z,-0.88
2023-02-09T03:30:58.685Z,-0.72
2023-02-09T03:33:45.808Z,-0.80
2023-02-09T03:36:34.877Z,-0.87
2023-02-09T03:39:21.388Z,-0.97
2023-02-09T03:42:09.798Z,-1.07
2023-02-09T03:44:56.681Z,-0.86
2023-02-09T03:47:43.197Z,-1.00
2023-02-09T03:50:30.600Z,-0.91
2023-02-09T03:53:17.057Z,-1.00
2023-02-09T03:56:04.620Z,-1.13
2023-02-09T03:58:53.007Z,-1.16
2023-02-09T04:01:40.302Z,-1.16
2023-02-09T04:04:27.450Z,-1.75
2023-02-09T04:07:14.023Z,-1.29
2023-02-09T04:10:00.853Z,-1.15
2023-02-09T04:12:48.301Z,-1.29
2023-02-09T04:15:36.673Z,-1.42
2023-02-09T04:18:23.305Z,-1.29
2023-02-09T04:21:10.007Z,-1.24
2023-02-09T04:23:56.929Z,-1.29
2023-02-09T04:26:43.761Z,-1.29
2023-02-09T04:29:30.623Z,-1.22
2023-02-09T04:32:18.932Z,-1.20
2023-02-09T04:35:05.924Z,-1.19
2023-02-09T04:37:52.524Z,-1.29
2023-02-09T04:40:39.374Z,-1.30
2023-02-09T04:43:26.292Z,-1.33
2023-02-09T04:46:14.301Z,-1.25
2023-02-09T04:49:02.318Z,-1.31
2023-02-09T04:51:49.221Z,-1.32
2023-02-09T04:54:35.952Z,-1.39
2023-02-09T04:57:40.087Z,-1.52
2023-02-09T05:00:27.112Z,-1.52
2023-02-09T05:03:14.570Z,-1.57
2023-02-09T05:06:07.021Z,-1.49
2023-02-09T05:08:53.704Z,-1.49
2023-02-09T05:11:40.318Z,-1.43
2023-02-09T05:14:27.376Z,-1.31
2023-02-09T05:17:14.643Z,-1.35
2023-02-09T05:20:01.273Z,-1.26
2023-02-09T05:22:50.267Z,-1.44
2023-02-09T05:25:37.106Z,-1.39
2023-02-09T05:28:23.954Z,-1.42
2023-02-09T05:31:10.605Z,-1.31
2023-02-09T05:33:57.425Z,-1.23
2023-02-09T05:36:44.232Z,-1.29
2023-02-09T05:39:32.523Z,-1.37
2023-02-09T05:42:19.412Z,-1.21
2023-02-09T05:45:06.825Z,-1.09
2023-02-09T05:47:53.612Z,-1.07
2023-02-09T05:50:40.521Z,-1.04
2023-02-09T05:53:27.103Z,-1.25
2023-02-09T05:56:15.213Z,-1.28
2023-02-09T05:59:04.313Z,-1.55
2023-02-09T06:01:52.003Z,-1.48
2023-02-09T06:04:38.437Z,-1.39
2023-02-09T06:07:25.202Z,-1.35
2023-02-09T06:10:12.048Z,-1.33
2023-02-09T06:13:00.115Z,-1.44
2023-02-09T06:15:46.827Z,-1.36
2023-02-09T06:18:33.726Z,-1.35
2023-02-09T06:21:20.920Z,-1.35
2023-02-09T06:24:07.690Z,-1.34
2023-02-09T06:26:56.277Z,-1.35
2023-02-09T06:29:44.338Z,-1.45
2023-02-09T06:32:31.190Z,-1.42
2023-02-09T06:35:18.064Z,-1.37
2023-02-09T06:38:04.985Z,-1.42
2023-02-09T06:40:52.172Z,-1.58
2023-02-09T06:43:39.124Z,-1.45
2023-02-09T06:46:27.168Z,-1.43
2023-02-09T06:49:13.834Z,-1.47
2023-02-09T06:52:00.434Z,-1.39
2023-02-09T06:54:47.330Z,-1.22
2023-02-09T06:57:34.911Z,-1.24
2023-02-09T07:00:22.241Z,-1.30
2023-02-09T07:03:11.190Z,-1.19
2023-02-09T07:06:03.294Z,-1.26
2023-02-09T07:08:50.916Z,-1.13
2023-02-09T07:11:37.368Z,-1.15
2023-02-09T07:14:24.050Z,-1.17
2023-02-09T07:17:10.764Z,-1.06
2023-02-09T07:19:59.228Z,-1.01
2023-02-09T07:22:45.698Z,-1.00
2023-02-09T07:25:32.478Z,-0.81
2023-02-09T07:28:21.353Z,-0.83
2023-02-09T07:31:10.622Z,-0.73
2023-02-09T07:33:57.545Z,-0.62
2023-02-09T07:36:47.884Z,-0.60
2023-02-09T07:39:34.737Z,-0.61
2023-02-09T07:42:23.296Z,-0.32
2023-02-09T07:45:17.044Z,-0.33
2023-02-09T07:48:03.581Z,-0.08
2023-02-09T07:50:50.588Z,-0.08
2023-02-09T07:53:38.601Z,-0.21
2023-02-09T07:56:26.365Z,-0.03
2023-02-09T07:59:13.019Z,0.17
2023-02-09T08:01:59.942Z,0.13
2023-02-09T08:04:46.937Z,0.25
2023-02-09T08:07:33.589Z,0.20
2023-02-09T08:10:21.788Z,0.17
2023-02-09T08:13:08.709Z,0.14
2023-02-09T08:15:59.476Z,0.21
2023-02-09T08:18:51.488Z,0.24
2023-02-09T08:21:41.084Z,0.31
2023-02-09T08:24:27.609Z,0.42
2023-02-09T08:27:15.761Z,0.55
2023-02-09T08:30:03.987Z,0.74
2023-02-09T08:32:50.807Z,0.82
2023-02-09T08:35:37.554Z,1.11
2023-02-09T08:38:24.456Z,1.30
2023-02-09T08:41:15.073Z,1.23
2023-02-09T08:44:04.051Z,1.26
2023-02-09T08:46:50.737Z,1.13
2023-02-09T08:49:37.790Z,1.37
2023-02-09T08:52:24.424Z,1.44
2023-02-09T08:55:11.461Z,1.67
2023-02-09T08:57:58.010Z,1.53
2023-02-09T09:00:46.188Z,1.81
2023-02-09T09:03:33.317Z,1.56
2023-02-09T09:06:19.787Z,1.64
2023-02-09T09:09:06.583Z,1.78
2023-02-09T09:11:53.330Z,1.88
2023-02-09T09:14:40.650Z,1.95
2023-02-09T09:17:30.165Z,1.81
2023-02-09T09:20:17.061Z,2.13
2023-02-09T09:23:03.675Z,2.19
2023-02-09T09:25:50.419Z,2.15
2023-02-09T09:28:37.456Z,2.09
2023-02-09T09:31:23.962Z,2.39
2023-02-09T09:34:12.144Z,2.39
2023-02-09T09:36:58.984Z,2.51
2023-02-09T09:39:45.666Z,2.67
2023-02-09T09:42:37.252Z,2.55
2023-02-09T09:45:26.809Z,2.64
2023-02-09T09:48:23.904Z,2.76
2023-02-09T09:51:16.984Z,2.80
2023-02-09T09:54:06.551Z,2.71
2023-02-09T09:56:55.533Z,2.75
2023-02-09T09:59:43.395Z,2.90
2023-02-09T10:02:32.633Z,3.05
2023-02-09T10:05:21.247Z,3.20
2023-02-09T10:08:16.366Z,3.04
2023-02-09T10:11:06.812Z,3.21
2023-02-09T10:13:55.347Z,3.49
2023-02-09T10:16:44.688Z,3.56
2023-02-09T10:19:32.766Z,3.58
2023-02-09T10:22:21.951Z,3.61
2023-02-09T10:25:40.240Z,3.69
2023-02-09T10:28:29.050Z,3.54
2023-02-09T10:31:23.561Z,3.87
2023-02-09T10:34:16.552Z,3.87
2023-02-09T10:37:20.891Z,3.98
2023-02-09T10:40:15.276Z,4.05
2023-02-09T10:43:05.473Z,3.76
2023-02-09T10:45:58.770Z,3.85
2023-02-09T10:48:47.334Z,3.94
2023-02-09T10:51:35.168Z,4.46
2023-02-09T10:54:22.495Z,4.79
2023-02-09T10:57:23.104Z,5.45
2023-02-09T11:00:44.370Z,5.93
2023-02-09T11:03:31.401Z,5.43
2023-02-09T11:06:20.909Z,5.25
2023-02-09T11:09:12.717Z,5.47
2023-02-09T11:12:00.208Z,4.99
2023-02-09T11:14:47.180Z,4.76
2023-02-09T11:17:42.366Z,5.20
2023-02-09T11:20:35.794Z,5.02
2023-02-09T11:23:38.518Z,5.23
2023-02-09T11:26:37.028Z,4.94
2023-02-09T11:29:30.949Z,5.02
2023-02-09T11:32:21.537Z,4.73
2023-02-09T11:35:12.944Z,4.52
2023-02-09T11:38:04.063Z,4.42
2023-02-09T11:40:55.020Z,4.28
2023-02-09T11:43:44.407Z,4.74
2023-02-09T11:46:34.800Z,4.82
2023-02-09T11:49:29.176Z,4.58
2023-02-09T11:52:30.352Z,4.65
2023-02-09T11:55:27.675Z,4.66
2023-02-09T11:58:38.871Z,4.73
2023-02-09T12:01:44.013Z,4.51
2023-02-09T12:04:44.031Z,4.67
2023-02-09T12:07:42.749Z,4.94
2023-02-09T12:10:39.449Z,4.89
2023-02-09T12:13:39.513Z,4.85
2023-02-09T12:16:31.318Z,5.12
2023-02-09T12:19:30.548Z,5.31
2023-02-09T12:22:53.365Z,5.32
2023-02-09T12:26:02.323Z,4.92
2023-02-09T12:28:56.001Z,5.06
2023-02-09T12:32:26.282Z,5.03
2023-02-09T12:35:29.372Z,5.44
2023-02-09T12:38:21.174Z,4.96
2023-02-09T12:41:13.081Z,5.19
2023-02-09T12:44:40.380Z,5.58
2023-02-09T12:47:49.553Z,5.45
2023-02-09T12:50:54.721Z,5.57
2023-02-09T12:53:50.532Z,5.31
2023-02-09T12:56:39.943Z,5.70
2023-02-09T12:59:27.552Z,5.58
2023-02-09T13:02:24.124Z,5.52
2023-02-09T13:05:15.042Z,5.68
2023-02-09T13:08:15.985Z,5.72
2023-02-09T13:11:23.508Z,5.63
2023-02-09T13:14:17.053Z,5.86
2023-02-09T13:17:37.257Z,5.37
2023-02-09T13:20:47.042Z,5.32
2023-02-09T13:23:37.284Z,5.72
2023-02-09T13:26:28.005Z,5.70
2023-02-09T13:29:21.258Z,5.49
2023-02-09T13:32:27.763Z,5.43
2023-02-09T13:35:24.932Z,5.79
2023-02-09T13:38:17.244Z,5.74
2023-02-09T13:41:07.148Z,5.82
2023-02-09T13:43:55.170Z,5.76
2023-02-09T13:46:41.933Z,5.88
2023-02-09T13:49:30.807Z,6.01
2023-02-09T13:52:20.494Z,5.92
2023-02-09T13:55:12.972Z,5.82
2023-02-09T13:58:01.962Z,5.76
2023-02-09T14:00:52.628Z,5.94
2023-02-09T14:03:57.450Z,5.90
2023-02-09T14:06:50.419Z,5.64
2023-02-09T14:09:47.721Z,5.71
2023-02-09T14:12:56.824Z,5.66
2023-02-09T14:16:06.273Z,5.57
2023-02-09T14:18:55.726Z,5.65
2023-02-09T14:21:46.604Z,5.56
2023-02-09T14:24:43.611Z,5.48
2023-02-09T14:27:33.047Z,5.41
2023-02-09T14:30:22.104Z,5.05
2023-02-09T14:33:24.818Z,5.25
2023-02-09T14:36:24.638Z,5.20
2023-02-09T14:39:14.055Z,4.99
2023-02-09T14:42:18.106Z,5.28
2023-02-09T14:45:30.427Z,4.90
2023-02-09T14:48:21.864Z,5.41
2023-02-09T14:51:15.191Z,5.26
2023-02-09T14:54:02.899Z,4.96
2023-02-09T14:56:49.856Z,5.02
2023-02-09T14:59:36.395Z,5.08
2023-02-09T15:02:27.083Z,5.13
2023-02-09T15:05:13.685Z,4.99
2023-02-09T15:08:05.807Z,5.00
2023-02-09T15:10:57.449Z,4.97
2023-02-09T15:13:44.318Z,5.02
2023-02-09T15:16:31.748Z,4.87
2023-02-09T15:19:23.777Z,4.87
2023-02-09T15:22:13.659Z,4.87
2023-02-09T15:25:00.330Z,4.86
2023-02-09T15:27:52.705Z,4.70
2023-02-09T15:30:39.430Z,4.77
2023-02-09T15:33:27.106Z,4.63
2023-02-09T15:36:17.818Z,4.54
2023-02-09T15:39:05.069Z,4.43
2023-02-09T15:42:09.117Z,4.17
2023-02-09T15:45:14.489Z,4.04
2023-02-09T15:48:01.272Z,4.09
2023-02-09T15:50:50.772Z,4.10
2023-02-09T15:53:38.834Z,3.98
2023-02-09T15:56:25.391Z,3.91
2023-02-09T15:59:18.989Z,3.95
2023-02-09T16:02:12.841Z,3.82
2023-02-09T16:04:59.385Z,3.84
2023-02-09T16:07:46.248Z,3.67
2023-02-09T16:10:33.084Z,3.49
2023-02-09T16:13:21.212Z,3.56
2023-02-09T16:16:16.818Z,3.60
2023-02-09T16:19:05.620Z,3.41
2023-02-09T16:21:56.440Z,3.49
2023-02-09T16:24:46.269Z,2.92
2023-02-09T16:27:33.426Z,3.36
2023-02-09T16:30:22.827Z,3.39
2023-02-09T16:33:09.719Z,3.33
2023-02-09T16:36:00.004Z,3.43
2023-02-09T16:38:47.737Z,3.34
2023-02-09T16:41:50.758Z,3.51
2023-02-09T16:44:37.969Z,3.55
2023-02-09T16:47:27.968Z,3.35
2023-02-09T16:50:22.783Z,3.35
2023-02-09T16:53:22.338Z,3.47
2023-02-09T16:56:15.467Z,3.34
2023-02-09T16:59:02.208Z,3.26
2023-02-09T17:01:49.559Z,3.35
2023-02-09T17:04:37.873Z,3.29
2023-02-09T17:07:30.234Z,3.28
2023-02-09T17:10:20.402Z,3.28
2023-02-09T17:13:06.817Z,3.31
2023-02-09T17:15:55.351Z,3.24
2023-02-09T17:18:44.132Z,3.34
2023-02-09T17:21:32.606Z,3.33
2023-02-09T17:24:19.483Z,3.33
2023-02-09T17:27:08.117Z,3.23
2023-02-09T17:29:54.945Z,3.19
2023-02-09T17:32:41.718Z,3.01
2023-02-09T17:35:58.047Z,3.12
2023-02-09T17:38:37.772Z,3.08
2023-02-09T17:41:33.454Z,3.18
2023-02-09T17:44:43.751Z,3.04
2023-02-09T17:47:31.994Z,3.04
2023-02-09T17:50:20.049Z,3.01
2023-02-09T17:53:15.667Z,3.01
2023-02-09T17:56:02.681Z,2.89
2023-02-09T17:58:49.387Z,3.10
2023-02-09T18:01:53.592Z,2.99
2023-02-09T18:04:56.051Z,3.01
2023-02-09T18:07:45.611Z,2.96
2023-02-09T18:10:37.439Z,3.04
2023-02-09T18:13:25.891Z,2.96
2023-02-09T18:16:15.061Z,2.87
2023-02-09T18:19:02.842Z,2.76
2023-02-09T18:21:52.547Z,2.74
2023-02-09T18:24:39.269Z,2.68
2023-02-09T18:27:40.485Z,2.74
2023-02-09T18:30:31.931Z,2.76
2023-02-09T18:33:18.974Z,2.73
2023-02-09T18:36:08.094Z,2.78
2023-02-09T18:38:55.818Z,2.64
2023-02-09T18:41:43.798Z,2.74
2023-02-09T18:44:32.365Z,2.66
2023-02-09T18:47:18.775Z,2.60
2023-02-09T18:50:06.186Z,2.71
2023-02-09T18:52:57.114Z,2.55
2023-02-09T18:55:43.929Z,2.67
2023-02-09T18:58:35.482Z,2.70
2023-02-09T19:01:24.127Z,2.55
2023-02-09T19:04:10.950Z,2.67
2023-02-09T19:06:58.060Z,2.55
2023-02-09T19:09:46.988Z,2.50
2023-02-09T19:12:33.717Z,2.43
2023-02-09T19:15:26.530Z,2.56
2023-02-09T19:18:20.369Z,2.30
2023-02-09T19:21:17.270Z,2.30
2023-02-09T19:24:04.605Z,2.32
2023-02-09T19:27:02.096Z,2.22
2023-02-09T19:29:54.037Z,2.26
2023-02-09T19:32:48.696Z,2.33
2023-02-09T19:35:37.840Z,2.22
2023-02-09T19:38:25.732Z,2.21
2023-02-09T19:41:13.656Z,2.27
2023-02-09T19:44:01.911Z,2.09
2023-02-09T19:46:49.562Z,2.20
2023-02-09T19:49:35.988Z,2.20
2023-02-09T19:52:23.050Z,2.34
2023-02-09T19:55:11.220Z,2.22
2023-02-09T19:57:57.965Z,2.29
2023-02-09T20:00:46.054Z,2.20
2023-02-09T20:03:32.802Z,2.18
2023-02-09T20:06:19.780Z,2.16
2023-02-09T20:09:06.639Z,2.07
2023-02-09T20:11:53.357Z,2.13
2023-02-09T20:14:40.284Z,2.06
2023-02-09T20:17:30.217Z,2.00
2023-02-09T20:20:17.051Z,2.00
2023-02-09T20:23:03.705Z,1.87
2023-02-09T20:25:50.626Z,1.90
2023-02-09T20:28:37.413Z,1.95
2023-02-09T20:31:26.158Z,1.83
2023-02-09T20:34:19.037Z,1.85
2023-02-09T20:37:05.720Z,1.91
2023-02-09T20:40:08.783Z,1.97
2023-02-09T20:43:13.478Z,1.92
2023-02-09T20:46:25.111Z,1.93
2023-02-09T20:49:25.408Z,1.92
2023-02-09T20:52:15.228Z,1.98
2023-02-09T20:55:02.203Z,2.05
2023-02-09T20:57:49.285Z,2.06
2023-02-09T21:00:35.808Z,2.01
2023-02-09T21:03:22.757Z,1.93
2023-02-09T21:06:10.960Z,2.07
2023-02-09T21:08:57.717Z,1.86
2023-02-09T21:11:44.665Z,1.85
2023-02-09T21:14:41.879Z,1.89
2023-02-09T21:17:31.684Z,1.90
2023-02-09T21:20:19.165Z,1.86
2023-02-09T21:23:07.024Z,1.97
2023-02-09T21:26:01.716Z,2.05
2023-02-09T21:28:48.643Z,1.90
2023-02-09T21:31:36.383Z,1.88
2023-02-09T21:34:23.177Z,1.89
2023-02-09T21:37:13.018Z,2.02
2023-02-09T21:40:03.038Z,2.05
2023-02-09T21:42:50.947Z,2.03
2023-02-09T21:45:39.437Z,1.77
2023-02-09T21:48:26.363Z,2.09
2023-02-09T21:51:13.028Z,1.86
2023-02-09T21:53:59.855Z,2.18
2023-02-09T21:56:48.058Z,2.26
2023-02-09T21:59:34.766Z,2.37
2023-02-09T22:02:21.708Z,2.32
2023-02-09T22:05:09.886Z,2.46
2023-02-09T22:07:56.626Z,2.62
2023-02-09T22:10:43.321Z,2.53
2023-02-09T22:13:36.819Z,2.63
2023-02-09T22:16:34.794Z,2.67
2023-02-09T22:19:24.325Z,2.76
2023-02-09T22:22:11.589Z,2.81
2023-02-09T22:24:59.181Z,2.81
2023-02-09T22:27:46.061Z,2.88
2023-02-09T22:30:35.194Z,3.11
2023-02-09T22:33:21.910Z,3.23
2023-02-09T22:36:12.155Z,3.36
2023-02-09T22:38:58.796Z,3.46
2023-02-09T22:41:47.508Z,3.43
2023-02-09T22:44:34.266Z,3.47
2023-02-09T22:47:22.549Z,3.45
2023-02-09T22:50:09.773Z,3.48
2023-02-09T22:52:56.893Z,3.41
2023-02-09T22:55:46.433Z,3.37
2023-02-09T22:58:33.449Z,3.63
2023-02-09T23:01:20.368Z,3.64
2023-02-09T23:04:08.433Z,3.77
2023-02-09T23:06:55.197Z,3.82
2023-02-09T23:09:42.211Z,3.80
2023-02-09T23:12:28.974Z,3.65
2023-02-09T23:15:16.009Z,3.63
2023-02-09T23:18:02.803Z,3.72
2023-02-09T23:20:50.924Z,3.77
2023-02-09T23:23:37.939Z,3.71
2023-02-09T23:26:25.416Z,3.80
2023-02-09T23:29:14.610Z,3.82
2023-02-09T23:32:01.137Z,3.71
2023-02-09T23:34:47.849Z,3.69
2023-02-09T23:37:38.222Z,3.59
2023-02-09T23:40:24.997Z,3.51
2023-02-09T23:43:11.549Z,3.71
2023-02-09T23:46:01.521Z,3.62
2023-02-09T23:48:48.867Z,3.65
2023-02-09T23:51:36.792Z,3.50
2023-02-09T23:54:24.872Z,3.51
2023-02-09T23:57:11.500Z,3.37
2023-02-09T23:59:58.405Z,3.40
